This is the latest recevied weather packets stored in our database for station/object XE2AD-3. If no packets are shown the sender has not sent any weather packets the latest 1 day(s).
| Time | Temp. | Humidity | Pressure | Rain* | Wind** | Luminosity | Snow |
|---|---|---|---|---|---|---|---|
| 1778114086 | 29.44° C | 12% | 796.1 hPa | - | - | - | - |
| 1778112899 | 30.56° C | 11% | 796.1 hPa | - | - | - | - |
| 1778111707 | 32.22° C | 11% | 796.1 hPa | - | - | - | - |
| 1778105728 | 34.44° C | 10% | 796.2 hPa | - | - | - | - |
| 1778102143 | 34.44° C | 10% | 796.6 hPa | - | - | - | - |
| 1778098557 | 33.33° C | 11% | 797.4 hPa | - | - | - | - |
| 1778096166 | 32.78° C | 12% | 797.9 hPa | - | - | - | - |
| 1778090196 | 32.22° C | 12% | 799.2 hPa | - | - | - | - |
| 1778089009 | 32.22° C | 12% | 799.3 hPa | - | - | - | - |
| 1778087805 | 31.67° C | 12% | 799.6 hPa | - | - | - | - |
| 1778079437 | 28.33° C | 16% | 799.9 hPa | - | - | - | - |
| 1778078243 | 26.11° C | 16% | 799.9 hPa | - | - | - | - |
| 1778067481 | 12.78° C | 19% | 798.6 hPa | - | - | - | - |
| 1778059110 | 13.33° C | 17% | 798 hPa | - | - | - | - |
| 1778053144 | 15.56° C | 16% | 798.2 hPa | - | - | - | - |
| 1778051942 | 16.11° C | 16% | 798.2 hPa | - | - | - | - |
| 1778050754 | 17.22° C | 15% | 798.4 hPa | - | - | - | - |
| 1778048366 | 17.22° C | 15% | 798.5 hPa | - | - | - | - |
| 1778045965 | 17.22° C | 15% | 798.6 hPa | - | - | - | - |
| 1778043576 | 17.78° C | 15% | 798.7 hPa | - | - | - | - |
| 1778041192 | 18.89° C | 14% | 798.4 hPa | - | - | - | - |
| 1778039990 | 19.44° C | 14% | 798.1 hPa | - | - | - | - |
| 1778038794 | 21.11° C | 14% | 797.7 hPa | - | - | - | - |
| 1778037599 | 21.11° C | 14% | 797.5 hPa | - | - | - | - |
| 1778034012 | 22.78° C | 13% | 796.8 hPa | - | - | - | - |
* Rain since midnight (hover to see other rain measurements)
** Current wind speed in m/s (hover to see current wind gust speed)